Kylertown, PA (16847)

1:58 PM EDT on August 04, 2015 (GMT -0400)
South Philipsburg | | Change Station
CLOSE
Current Station
Personal Weather Station
Location: Philipsburg, PA
Elevation: 1444 ft
Nearby Weather Stations

Elev 1444 ft 40.89 °N, 78.22 °W | Updated 3 minutes ago

Mostly Cloudy
Mostly Cloudy
76.0 °F
Feels Like 78 °F
N
3.0
Wind Variable Wind from SSE
Gusts 7.0 mph

Today
High -- | Low -- °F
--% Chance of Precip.
Yesterday
High -- | Low -- °F
Precip. -- in
6:11 AM 8:25 PM
Waning Gibbous, 76% visible
Pressure 29.95 in
Visibility 10.0 miles
Clouds Mostly Cloudy 6000 ft
Heat Index 78 °F
Dew Point 59 °F
Humidity 56%
Rainfall 0.00 in
Snow Depth Not available.
UV 6 out of 12
Pollen 6.40 out of 12
Air Quality Not available.
Flu Activity Not available.
METAR KFIG 041754Z AUTO 27007KT 230V300 10SM BKN060 26/11 A2997 RMK AO2 SLP140 T02560111 10261 20183 57000

More Conditions Fewer Conditions

Pressure 29.95 in
Visibility 10.0 miles
Clouds Mostly Cloudy 6000 ft
Heat Index 78 °F
Dew Point 59 °F
Humidity 56%
Rainfall 0.00 in
Snow Depth Not available.
UV 6 out of 12
Pollen 6.40 out of 12
Air Quality Not available.
Flu Activity Not available.
METAR KFIG 041754Z AUTO 27007KT 230V300 10SM BKN060 26/11 A2997 RMK AO2 SLP140 T02560111 10261 20183 57000

More Conditions Fewer Conditions

10-Day Weather Forecast

×

Almanac

Astronomy

Aug. 04, 2015 Rise Set
Actual Time
Civil Twilight
Nautical Twilight
Astronomical Twilight
Moon
Length of Visible Light
Length of Day
Tomorrow will be .
, % of the Moon is Illuminated

Today's Extremes

State Highs State Lows

Community

WunderPhotos

Upload Photos

1,843,927 photos uploaded!

WunderBlogs® & News

Nearby

Air Quality

  Air Quality AQ Index Pollutant
Not available.

Snow Depth

Station Depth Elevation

Earthquake Activity

City Distance Mag. Time & Date
Minimum magnitude displayed is 2.5.

Coastal Water Temperatures

Place Temperature

Stations

Nearby Weather Stations

Station Location Temp. Windchill Dew Point Humidity Wind Precip. Elev Updated Type